createdAt,value
2022-12-18T00:00:49.177Z,4.00
2022-12-18T00:03:35.359Z,4.53
2022-12-18T00:06:19.612Z,4.30
2022-12-18T00:09:05.263Z,4.40
2022-12-18T00:11:49.310Z,4.73
2022-12-18T00:14:33.860Z,5.20
2022-12-18T00:17:17.947Z,6.00
2022-12-18T00:20:03.518Z,4.80
2022-12-18T00:22:47.682Z,6.20
2022-12-18T00:25:31.589Z,5.70
2022-12-18T00:28:15.626Z,4.40
2022-12-18T00:31:03.495Z,3.60
2022-12-18T00:33:47.626Z,4.10
2022-12-18T00:36:37.005Z,3.97
2022-12-18T00:39:20.994Z,3.30
2022-12-18T00:42:27.716Z,3.43
2022-12-18T00:45:13.206Z,3.83
2022-12-18T00:47:58.207Z,3.30
2022-12-18T00:50:42.294Z,4.67
2022-12-18T00:53:27.873Z,3.70
2022-12-18T00:56:14.662Z,4.00
2022-12-18T00:58:58.637Z,4.30
2022-12-18T01:01:42.773Z,3.83
2022-12-18T01:04:26.922Z,3.40
2022-12-18T01:07:10.920Z,4.03
2022-12-18T01:09:56.449Z,3.87
2022-12-18T01:12:40.852Z,3.70
2022-12-18T01:15:24.807Z,3.40
2022-12-18T01:18:09.505Z,3.57
2022-12-18T01:20:53.520Z,3.93
2022-12-18T01:23:38.046Z,3.87
2022-12-18T01:26:23.694Z,3.33
2022-12-18T01:29:08.156Z,3.63
2022-12-18T01:31:52.588Z,3.50
2022-12-18T01:34:37.718Z,3.47
2022-12-18T01:37:21.467Z,2.80
2022-12-18T01:40:07.678Z,3.10
2022-12-18T01:42:53.766Z,2.90
2022-12-18T01:45:37.776Z,3.30
2022-12-18T01:48:21.865Z,3.63
2022-12-18T01:51:06.593Z,3.17
2022-12-18T01:53:50.836Z,3.60
2022-12-18T01:56:34.749Z,3.30
2022-12-18T01:59:20.097Z,3.50
2022-12-18T02:02:05.358Z,3.57
2022-12-18T02:04:49.681Z,3.37
2022-12-18T02:07:44.896Z,3.53
2022-12-18T02:10:33.805Z,3.67
2022-12-18T02:13:23.199Z,2.90
2022-12-18T02:16:34.535Z,3.30
2022-12-18T02:19:39.940Z,3.03
2022-12-18T02:22:31.867Z,3.50
2022-12-18T02:25:25.114Z,3.73
2022-12-18T02:28:15.895Z,3.57
2022-12-18T02:31:03.941Z,3.13
2022-12-18T02:33:49.399Z,3.10
2022-12-18T02:36:34.735Z,2.90
2022-12-18T02:39:19.864Z,2.97
2022-12-18T02:42:14.713Z,2.77
2022-12-18T02:44:59.948Z,3.10
2022-12-18T02:47:51.803Z,2.77
2022-12-18T02:50:39.801Z,2.93
2022-12-18T02:53:33.934Z,2.50
2022-12-18T02:56:22.232Z,2.60
2022-12-18T02:59:11.856Z,2.40
2022-12-18T03:02:07.053Z,2.43
2022-12-18T03:05:00.899Z,2.50
2022-12-18T03:07:49.154Z,2.93
2022-12-18T03:10:37.907Z,2.77
2022-12-18T03:13:28.072Z,2.90
2022-12-18T03:16:16.560Z,3.10
2022-12-18T03:19:06.472Z,3.33
2022-12-18T03:21:55.710Z,3.17
2022-12-18T03:24:41.177Z,4.30
2022-12-18T03:27:26.973Z,6.80
2022-12-18T03:30:15.696Z,3.07
2022-12-18T03:33:08.191Z,2.93
2022-12-18T03:35:55.027Z,2.93
2022-12-18T03:38:40.261Z,3.20
2022-12-18T03:41:31.875Z,3.43
2022-12-18T03:44:47.188Z,3.13
2022-12-18T03:47:37.951Z,3.07
2022-12-18T03:50:29.982Z,3.30
2022-12-18T03:53:25.291Z,3.40
2022-12-18T03:56:11.965Z,3.53
2022-12-18T03:58:59.908Z,3.43
2022-12-18T04:01:49.737Z,3.53
2022-12-18T04:04:35.608Z,3.80
2022-12-18T04:07:22.320Z,3.57
2022-12-18T04:10:13.319Z,4.27
2022-12-18T04:13:00.158Z,3.50
2022-12-18T04:15:44.999Z,4.10
2022-12-18T04:18:32.488Z,4.60
2022-12-18T04:21:18.177Z,4.37
2022-12-18T04:24:03.853Z,4.77
2022-12-18T04:26:49.069Z,4.90
2022-12-18T04:29:35.831Z,6.13
2022-12-18T04:32:19.603Z,6.33
2022-12-18T04:35:07.715Z,5.77
2022-12-18T04:37:52.179Z,6.93
2022-12-18T04:40:36.093Z,6.97
2022-12-18T04:43:23.911Z,7.30
2022-12-18T04:46:09.597Z,7.63
2022-12-18T04:48:53.728Z,9.13
2022-12-18T04:51:37.457Z,8.03
2022-12-18T04:54:21.290Z,8.40
2022-12-18T04:57:05.035Z,7.90
2022-12-18T04:59:50.201Z,7.67
2022-12-18T05:02:34.157Z,7.17
2022-12-18T05:05:18.473Z,8.20
2022-12-18T05:08:02.236Z,7.73
2022-12-18T05:10:46.516Z,7.27
2022-12-18T05:13:30.698Z,7.07
2022-12-18T05:16:16.250Z,8.80
2022-12-18T05:19:00.020Z,9.97
2022-12-18T05:21:43.682Z,10.07
2022-12-18T05:24:28.054Z,8.67
2022-12-18T05:27:11.783Z,10.37
2022-12-18T05:29:55.540Z,10.73
2022-12-18T05:32:41.148Z,11.23
2022-12-18T05:35:24.935Z,11.03
2022-12-18T05:38:08.698Z,10.83
2022-12-18T05:40:53.109Z,11.40
2022-12-18T05:43:38.539Z,11.80
2022-12-18T05:46:22.546Z,11.77
2022-12-18T05:49:07.757Z,11.43
2022-12-18T05:51:51.593Z,11.50
2022-12-18T05:54:35.486Z,12.07
2022-12-18T05:57:19.400Z,11.67
2022-12-18T06:00:03.325Z,12.00
2022-12-18T06:02:56.105Z,11.47
2022-12-18T06:05:43.219Z,12.53
2022-12-18T06:08:27.018Z,13.23
2022-12-18T06:11:10.792Z,12.87
2022-12-18T06:13:58.695Z,12.67
2022-12-18T06:16:43.163Z,14.10
2022-12-18T06:19:26.961Z,15.17
2022-12-18T06:22:12.102Z,16.10
2022-12-18T06:24:56.029Z,13.90
2022-12-18T06:27:39.782Z,12.83
2022-12-18T06:30:23.691Z,13.80
2022-12-18T06:33:07.807Z,14.17
2022-12-18T06:35:52.787Z,15.13
2022-12-18T06:38:42.449Z,14.43
2022-12-18T06:41:26.573Z,15.20
2022-12-18T06:44:10.349Z,16.63
2022-12-18T06:46:54.957Z,15.53
2022-12-18T06:49:38.732Z,15.03
2022-12-18T06:52:22.533Z,16.40
2022-12-18T06:55:09.073Z,16.47
2022-12-18T06:57:52.944Z,16.77
2022-12-18T07:00:37.100Z,17.23
2022-12-18T07:03:21.059Z,18.00
2022-12-18T07:06:05.512Z,18.63
2022-12-18T07:08:50.221Z,17.03
2022-12-18T07:11:36.311Z,19.27
2022-12-18T07:14:20.263Z,18.30
2022-12-18T07:17:04.229Z,21.33
2022-12-18T07:19:48.026Z,19.60
2022-12-18T07:22:31.771Z,19.43
2022-12-18T07:25:15.468Z,20.33
2022-12-18T07:28:00.623Z,20.03
2022-12-18T07:30:44.395Z,18.33
2022-12-18T07:33:28.257Z,19.70
2022-12-18T07:36:13.386Z,16.27
2022-12-18T07:38:57.225Z,19.73
2022-12-18T07:41:46.752Z,18.67
2022-12-18T07:44:34.664Z,15.03
2022-12-18T07:47:18.476Z,19.77
2022-12-18T07:50:02.244Z,19.00
2022-12-18T07:52:46.713Z,18.60
2022-12-18T07:55:47.918Z,18.03
2022-12-18T07:58:35.001Z,17.60
2022-12-18T08:01:20.234Z,19.13
2022-12-18T08:04:05.375Z,17.93
2022-12-18T08:06:49.216Z,20.00
2022-12-18T08:09:33.043Z,29.90
2022-12-18T08:12:16.881Z,22.53
2022-12-18T08:15:00.679Z,21.20
2022-12-18T08:17:45.785Z,22.37
2022-12-18T08:20:29.549Z,18.43
2022-12-18T08:23:13.361Z,18.47
2022-12-18T08:25:57.157Z,23.70
2022-12-18T08:28:41.075Z,21.67
2022-12-18T08:31:25.727Z,20.73
2022-12-18T08:34:11.209Z,20.30
2022-12-18T08:36:55.001Z,21.07
2022-12-18T08:39:38.808Z,20.23
2022-12-18T08:42:40.142Z,20.83
2022-12-18T08:45:23.943Z,22.77
2022-12-18T08:48:08.087Z,21.13
2022-12-18T08:50:58.487Z,22.17
2022-12-18T08:53:42.528Z,21.90
2022-12-18T08:56:26.795Z,22.43
2022-12-18T08:59:15.909Z,24.67
2022-12-18T09:02:03.240Z,22.90
2022-12-18T09:04:55.378Z,23.27
2022-12-18T09:07:42.518Z,23.37
2022-12-18T09:10:26.271Z,21.90
2022-12-18T09:13:10.078Z,25.27
2022-12-18T09:15:56.312Z,28.07
2022-12-18T09:18:40.330Z,23.97
2022-12-18T09:21:24.478Z,23.03
2022-12-18T09:24:15.406Z,25.50
2022-12-18T09:26:59.867Z,24.40
2022-12-18T09:29:43.588Z,24.70
2022-12-18T09:32:27.414Z,20.40
2022-12-18T09:35:11.151Z,22.90
2022-12-18T09:37:55.479Z,22.90
2022-12-18T09:40:45.962Z,22.27
2022-12-18T09:43:35.886Z,24.20
2022-12-18T09:46:26.516Z,24.13
2022-12-18T09:49:16.849Z,25.93
2022-12-18T09:52:07.060Z,25.67
2022-12-18T09:54:55.683Z,17.77
2022-12-18T09:57:47.510Z,21.87
2022-12-18T10:00:31.502Z,21.60
2022-12-18T10:03:17.309Z,21.53
2022-12-18T10:06:08.717Z,21.93
2022-12-18T10:09:01.035Z,20.53
2022-12-18T10:11:55.209Z,20.73
2022-12-18T10:14:50.188Z,22.47
2022-12-18T10:17:44.496Z,21.03
2022-12-18T10:20:34.264Z,20.47
2022-12-18T10:23:27.529Z,21.90
2022-12-18T10:26:13.728Z,26.17
2022-12-18T10:29:05.579Z,21.40
2022-12-18T10:31:51.052Z,24.10
2022-12-18T10:34:35.009Z,26.83
2022-12-18T10:37:21.147Z,22.10
2022-12-18T10:40:18.443Z,23.17
2022-12-18T10:43:07.379Z,22.50
2022-12-18T10:46:19.517Z,23.33
2022-12-18T10:49:04.975Z,24.67
2022-12-18T10:51:49.026Z,24.73
2022-12-18T10:54:34.153Z,26.00
2022-12-18T10:57:31.594Z,25.17
2022-12-18T11:00:26.215Z,22.13
2022-12-18T11:03:32.652Z,22.20
2022-12-18T11:06:19.847Z,23.97
2022-12-18T11:09:13.131Z,24.23
2022-12-18T11:12:00.317Z,25.27
2022-12-18T11:14:48.043Z,25.33
2022-12-18T11:17:34.697Z,22.00
2022-12-18T11:20:33.934Z,21.73
2022-12-18T11:23:21.375Z,23.07
2022-12-18T11:26:07.056Z,24.20
2022-12-18T11:28:53.839Z,23.43
2022-12-18T11:31:37.702Z,23.43
2022-12-18T11:34:29.764Z,30.47
2022-12-18T11:37:20.182Z,21.23
2022-12-18T11:40:13.902Z,27.80
2022-12-18T11:43:06.645Z,25.97
2022-12-18T11:45:56.382Z,29.47
2022-12-18T11:48:47.020Z,28.30
2022-12-18T11:51:37.213Z,27.13
2022-12-18T11:54:20.964Z,29.03
2022-12-18T11:57:18.628Z,30.30
2022-12-18T12:00:07.356Z,29.47
2022-12-18T12:03:27.968Z,30.47
2022-12-18T12:06:19.476Z,27.90
2022-12-18T12:09:15.112Z,29.20
2022-12-18T12:12:14.640Z,28.77
2022-12-18T12:15:12.473Z,27.07
2022-12-18T12:18:08.172Z,25.37
2022-12-18T12:21:05.292Z,27.63
2022-12-18T12:23:55.441Z,30.00
2022-12-18T12:26:47.356Z,30.53
2022-12-18T12:29:44.770Z,29.97
2022-12-18T12:32:48.512Z,29.20
2022-12-18T12:35:44.922Z,26.53
2022-12-18T12:38:33.700Z,25.87
2022-12-18T12:41:39.349Z,27.90
2022-12-18T12:44:28.418Z,27.33
2022-12-18T12:47:18.828Z,28.00
2022-12-18T12:50:08.014Z,28.93
2022-12-18T12:52:55.518Z,24.27
2022-12-18T12:55:41.272Z,26.30
2022-12-18T12:58:33.639Z,28.23
2022-12-18T13:01:27.585Z,27.77
2022-12-18T13:04:24.089Z,25.50
2022-12-18T13:07:14.896Z,21.03
2022-12-18T13:10:26.817Z,17.03
2022-12-18T13:13:11.677Z,15.80
2022-12-18T13:16:07.437Z,11.13
2022-12-18T13:18:52.465Z,12.73
2022-12-18T13:21:37.714Z,14.60
2022-12-18T13:24:27.464Z,11.63
2022-12-18T13:27:44.358Z,15.47
2022-12-18T13:30:49.436Z,20.10
2022-12-18T13:36:51.487Z,18.10
2022-12-18T13:39:36.941Z,8.73
2022-12-18T13:43:08.451Z,12.57
2022-12-18T13:46:03.075Z,10.27
2022-12-18T13:48:54.648Z,9.97
2022-12-18T13:51:42.907Z,9.63
2022-12-18T13:54:35.355Z,9.97
2022-12-18T13:57:30.883Z,10.00
2022-12-18T14:00:29.719Z,10.87
2022-12-18T14:03:27.294Z,10.27
2022-12-18T14:06:14.136Z,8.57
2022-12-18T14:09:00.690Z,11.03
2022-12-18T14:11:50.952Z,12.23
2022-12-18T14:14:35.926Z,12.07
2022-12-18T14:17:21.218Z,9.07
2022-12-18T14:20:14.982Z,10.20
2022-12-18T14:22:59.702Z,11.40
2022-12-18T14:25:48.578Z,10.60
2022-12-18T14:28:34.016Z,9.37
2022-12-18T14:31:22.430Z,9.90
2022-12-18T14:34:06.314Z,13.00
2022-12-18T14:36:57.013Z,10.57
2022-12-18T14:39:41.233Z,13.13
2022-12-18T14:42:29.243Z,10.60
2022-12-18T14:45:41.440Z,13.17
2022-12-18T14:48:38.380Z,12.73
2022-12-18T14:51:24.432Z,9.70
2022-12-18T14:54:19.274Z,13.27
2022-12-18T14:57:05.997Z,16.00
2022-12-18T14:59:49.949Z,11.67
2022-12-18T15:02:38.153Z,17.67
2022-12-18T15:05:26.851Z,18.67
2022-12-18T15:08:42.978Z,13.83
2022-12-18T15:11:36.057Z,12.00
2022-12-18T15:14:36.726Z,16.17
2022-12-18T15:17:24.133Z,12.13
2022-12-18T15:20:13.699Z,12.77
2022-12-18T15:22:57.583Z,12.77
2022-12-18T15:25:41.569Z,12.30
2022-12-18T15:28:29.547Z,11.97
2022-12-18T15:31:26.441Z,12.53
2022-12-18T15:34:22.732Z,11.37
2022-12-18T15:37:09.620Z,13.03
2022-12-18T15:39:53.588Z,11.17
2022-12-18T15:42:54.647Z,12.20
2022-12-18T15:45:38.537Z,11.70
2022-12-18T15:48:24.263Z,10.30
2022-12-18T15:51:16.898Z,15.03
2022-12-18T15:54:05.031Z,11.10
2022-12-18T15:57:06.502Z,11.53
2022-12-18T15:59:50.435Z,13.73
2022-12-18T16:02:34.537Z,15.07
2022-12-18T16:05:20.417Z,14.27
2022-12-18T16:08:04.528Z,16.23
2022-12-18T16:10:49.934Z,13.87
2022-12-18T16:13:34.186Z,13.43
2022-12-18T16:16:18.676Z,14.33
2022-12-18T16:19:02.531Z,15.63
2022-12-18T16:21:48.569Z,21.40
2022-12-18T16:24:37.292Z,16.33
2022-12-18T16:27:23.440Z,18.07
2022-12-18T16:30:08.993Z,16.03
2022-12-18T16:32:52.921Z,18.03
2022-12-18T16:35:38.316Z,14.47
2022-12-18T16:38:22.373Z,13.23
2022-12-18T16:41:36.554Z,14.90
2022-12-18T16:44:22.217Z,16.90
2022-12-18T16:47:06.260Z,11.70
2022-12-18T16:49:53.559Z,16.33
2022-12-18T16:52:41.148Z,16.20
2022-12-18T16:55:25.077Z,15.00
2022-12-18T16:58:09.040Z,12.07
2022-12-18T17:00:54.437Z,13.27
2022-12-18T17:03:38.928Z,9.33
2022-12-18T17:06:23.108Z,14.73
2022-12-18T17:09:09.283Z,17.23
2022-12-18T17:11:53.651Z,15.47
2022-12-18T17:14:37.946Z,13.70
2022-12-18T17:17:24.104Z,14.40
2022-12-18T17:20:09.030Z,15.37
2022-12-18T17:22:53.094Z,11.80
2022-12-18T17:25:41.249Z,17.07
2022-12-18T17:28:26.066Z,10.97
2022-12-18T17:31:14.243Z,17.40
2022-12-18T17:34:00.348Z,16.80
2022-12-18T17:36:44.405Z,14.63
2022-12-18T17:39:29.039Z,12.53
2022-12-18T17:42:15.380Z,11.97
2022-12-18T17:44:59.860Z,17.33
2022-12-18T17:47:43.797Z,16.97
2022-12-18T17:50:29.128Z,15.17
2022-12-18T17:53:13.249Z,16.30
2022-12-18T17:55:57.764Z,16.63
2022-12-18T17:58:42.364Z,12.90
2022-12-18T18:01:27.384Z,12.20
2022-12-18T18:04:11.666Z,13.57
2022-12-18T18:06:57.200Z,14.10
2022-12-18T18:09:41.210Z,20.93
2022-12-18T18:12:42.849Z,18.67
2022-12-18T18:15:26.916Z,15.97
2022-12-18T18:18:11.112Z,13.20
2022-12-18T18:20:55.744Z,16.93
2022-12-18T18:23:41.961Z,16.20
2022-12-18T18:26:29.489Z,16.53
2022-12-18T18:29:15.992Z,17.07
2022-12-18T18:32:02.678Z,17.77
2022-12-18T18:34:46.618Z,16.60
2022-12-18T18:37:30.802Z,14.07
2022-12-18T18:40:16.618Z,16.63
2022-12-18T18:43:02.676Z,15.53
2022-12-18T18:45:48.714Z,16.23
2022-12-18T18:48:35.917Z,14.07
2022-12-18T18:51:21.970Z,14.97
2022-12-18T18:54:06.291Z,12.87
2022-12-18T18:59:55.857Z,14.90
2022-12-18T19:02:39.909Z,10.70
2022-12-18T19:05:23.935Z,13.67
2022-12-18T19:08:07.960Z,16.40
2022-12-18T19:10:57.657Z,16.47
2022-12-18T19:13:42.538Z,14.57
2022-12-18T19:16:28.261Z,16.07
2022-12-18T19:19:12.355Z,14.27
2022-12-18T19:21:56.675Z,16.80
2022-12-18T19:24:40.799Z,16.30
2022-12-18T19:27:24.687Z,17.67
2022-12-18T19:30:11.950Z,16.57
2022-12-18T19:32:56.206Z,16.57
2022-12-18T19:35:41.272Z,16.67
2022-12-18T19:38:25.670Z,15.97
2022-12-18T19:41:10.035Z,16.50
2022-12-18T19:43:54.301Z,14.30
2022-12-18T19:46:42.004Z,14.67
2022-12-18T19:49:26.064Z,11.00
2022-12-18T19:52:09.791Z,15.63
2022-12-18T19:54:53.746Z,14.27
2022-12-18T19:57:37.416Z,12.17
2022-12-18T20:00:23.730Z,15.17
2022-12-18T20:03:21.241Z,12.47
2022-12-18T20:06:12.102Z,13.50
2022-12-18T20:09:00.250Z,13.87
2022-12-18T20:11:45.124Z,13.63
2022-12-18T20:14:29.265Z,15.30
2022-12-18T20:17:13.391Z,15.33
2022-12-18T20:19:59.056Z,15.13
2022-12-18T20:22:42.808Z,15.27
2022-12-18T20:25:26.640Z,12.90
2022-12-18T20:28:10.479Z,16.87
2022-12-18T20:31:01.561Z,12.90
2022-12-18T20:33:48.614Z,12.57
2022-12-18T20:36:36.431Z,11.77
2022-12-18T20:39:22.575Z,12.30
2022-12-18T20:42:06.864Z,13.53
2022-12-18T20:44:51.103Z,14.40
2022-12-18T20:47:35.011Z,11.93
2022-12-18T20:50:19.116Z,14.63
2022-12-18T20:53:05.249Z,13.50
2022-12-18T20:55:49.190Z,13.50
2022-12-18T20:58:33.195Z,12.73
2022-12-18T21:01:20.587Z,15.67
2022-12-18T21:04:04.656Z,14.23
2022-12-18T21:06:54.278Z,12.50
2022-12-18T21:09:47.522Z,12.23
2022-12-18T21:12:48.204Z,14.03
2022-12-18T21:15:39.062Z,13.90
2022-12-18T21:18:23.115Z,13.63
2022-12-18T21:21:07.392Z,16.77
2022-12-18T21:23:52.019Z,13.90
2022-12-18T21:26:44.848Z,14.10
2022-12-18T21:29:29.709Z,14.07
2022-12-18T21:32:14.186Z,13.20
2022-12-18T21:34:58.053Z,13.17
2022-12-18T21:37:41.882Z,14.07
2022-12-18T21:40:26.250Z,12.53
2022-12-18T21:43:29.628Z,15.57
2022-12-18T21:46:13.420Z,14.30
2022-12-18T21:48:57.224Z,15.23
2022-12-18T21:51:41.575Z,13.87
2022-12-18T21:54:27.209Z,11.03
2022-12-18T21:57:13.436Z,13.50
2022-12-18T21:59:58.851Z,13.10
2022-12-18T22:02:43.038Z,13.77
2022-12-18T22:05:27.117Z,14.07
2022-12-18T22:08:11.222Z,15.10
2022-12-18T22:10:55.551Z,12.93
2022-12-18T22:13:39.560Z,10.87
2022-12-18T22:16:25.166Z,13.90
2022-12-18T22:19:09.675Z,12.60
2022-12-18T22:21:54.079Z,12.87
2022-12-18T22:24:38.045Z,15.53
2022-12-18T22:27:22.060Z,14.57
2022-12-18T22:30:05.990Z,15.30
2022-12-18T22:32:51.337Z,14.90
2022-12-18T22:35:35.238Z,12.80
2022-12-18T22:38:19.807Z,13.43
2022-12-18T22:41:03.790Z,15.50
2022-12-18T22:43:47.751Z,16.33
2022-12-18T22:46:34.606Z,17.00
2022-12-18T22:49:22.269Z,15.50
2022-12-18T22:52:09.447Z,15.20
2022-12-18T22:54:54.253Z,14.90
2022-12-18T22:57:38.386Z,16.37
2022-12-18T23:00:24.859Z,15.30
2022-12-18T23:03:09.806Z,16.50
2022-12-18T23:06:02.901Z,16.80
2022-12-18T23:08:50.544Z,15.37
2022-12-18T23:11:38.422Z,15.57
2022-12-18T23:14:22.526Z,18.63
2022-12-18T23:17:06.495Z,15.20
2022-12-18T23:19:50.494Z,18.37
2022-12-18T23:22:35.856Z,17.97
2022-12-18T23:25:19.664Z,17.77
2022-12-18T23:28:03.534Z,16.37
2022-12-18T23:30:47.345Z,17.57
2022-12-18T23:33:31.145Z,19.20
2022-12-18T23:36:16.015Z,22.37
2022-12-18T23:39:02.320Z,19.77
2022-12-18T23:41:46.037Z,22.03
2022-12-18T23:44:29.854Z,20.00
2022-12-18T23:47:13.679Z,22.47
2022-12-18T23:49:57.425Z,23.20
2022-12-18T23:52:41.145Z,20.10
2022-12-18T23:55:26.329Z,16.93
2022-12-18T23:58:17.913Z,22.30
